Time;durP1;ratioP1;P1;durP2;ratioP2;P2;SDS_P1;SDS_P2;PMS_P1;PMS_P2;Temp;Humidity;BMP_temperature;BMP_pressure;BME280_temperature;BME280_humidity;BME280_pressure;Samples;Min_cycle;Max_cycle;Signal;HPM_P1;HPM_P2
2023/07/08 00:01:17;;;;;;;2.88;1.90;;;23.20;48.80;;;;;;5054904;28;19908;-68
2023/07/08 00:03:43;;;;;;;2.70;1.73;;;23.10;49.30;;;;;;5051474;28;20025;-68
2023/07/08 00:06:21;;;;;;;3.10;2.17;;;23.00;49.50;;;;;;5051152;28;20096;-68
2023/07/08 00:08:47;;;;;;;3.72;2.20;;;23.00;49.90;;;;;;5048959;28;20021;-68
2023/07/08 00:11:14;;;;;;;2.47;2.10;;;22.90;50.30;;;;;;5056424;28;20043;-68
2023/07/08 00:13:39;;;;;;;2.20;2.00;;;22.80;50.40;;;;;;5035161;28;20029;-68
2023/07/08 00:16:10;;;;;;;3.03;2.10;;;22.70;50.60;;;;;;5052329;28;20013;-68
2023/07/08 00:18:35;;;;;;;2.80;2.15;;;22.70;50.60;;;;;;5055769;28;20028;-68
2023/07/08 00:21:01;;;;;;;4.63;2.10;;;22.60;50.60;;;;;;5047157;28;20025;-68
2023/07/08 00:23:27;;;;;;;5.15;1.92;;;22.70;50.70;;;;;;5050966;28;20032;-68
2023/07/08 00:25:52;;;;;;;3.50;2.00;;;22.60;50.70;;;;;;5051106;28;20040;-68
2023/07/08 00:28:20;;;;;;;2.40;1.75;;;22.60;50.70;;;;;;5050848;28;20021;-68
2023/07/08 00:30:46;;;;;;;2.80;2.20;;;22.60;50.70;;;;;;5050872;28;20025;-68
2023/07/08 00:33:12;;;;;;;2.92;2.20;;;22.60;50.90;;;;;;5049248;28;20029;-68
2023/07/08 00:35:40;;;;;;;2.85;2.00;;;22.60;51.00;;;;;;5049361;28;20108;-68
2023/07/08 00:38:28;;;;;;;2.63;1.85;;;22.50;51.10;;;;;;5052090;28;20576;-68
2023/07/08 00:41:02;;;;;;;3.25;1.92;;;22.50;51.10;;;;;;5046643;28;20040;-68
2023/07/08 00:43:36;;;;;;;2.33;2.05;;;22.40;51.40;;;;;;5044274;28;20033;-68
2023/07/08 00:46:17;;;;;;;2.20;1.80;;;22.40;51.50;;;;;;5051950;28;20032;-68
2023/07/08 00:48:45;;;;;;;2.78;2.17;;;22.30;51.40;;;;;;5047101;28;20033;-69
2023/07/08 00:51:12;;;;;;;3.22;2.03;;;22.30;51.40;;;;;;5053498;28;20096;-68
2023/07/08 00:53:38;;;;;;;2.58;2.00;;;22.30;51.70;;;;;;5051293;28;20035;-67
2023/07/08 00:56:17;;;;;;;2.10;1.90;;;22.20;52.00;;;;;;5051358;28;20029;-67
2023/07/08 00:58:50;;;;;;;4.32;1.90;;;22.20;52.00;;;;;;5050400;28;20032;-67
2023/07/08 01:01:16;;;;;;;2.92;1.80;;;22.20;52.10;;;;;;5054748;28;20203;-67
2023/07/08 01:03:52;;;;;;;2.17;1.85;;;22.20;52.20;;;;;;5055550;28;20132;-68
2023/07/08 01:06:21;;;;;;;2.45;1.98;;;22.10;52.30;;;;;;5050304;28;20060;-68
2023/07/08 01:08:52;;;;;;;3.38;1.95;;;22.00;52.50;;;;;;5036008;28;20029;-68
2023/07/08 01:11:21;;;;;;;3.28;2.15;;;22.00;52.70;;;;;;5053829;28;20478;-68
2023/07/08 01:13:50;;;;;;;4.25;2.10;;;21.90;53.10;;;;;;5048734;28;20021;-67
2023/07/08 01:16:16;;;;;;;5.13;2.20;;;21.80;53.10;;;;;;5051215;28;20053;-67
2023/07/08 01:18:43;;;;;;;5.50;2.15;;;21.80;53.30;;;;;;5054851;28;20025;-67
2023/07/08 01:21:36;;;;;;;2.83;2.17;;;21.80;53.20;;;;;;5050739;28;20519;-67
2023/07/08 01:24:04;;;;;;;2.63;2.00;;;21.70;53.40;;;;;;5050050;28;20024;-67
2023/07/08 01:26:33;;;;;;;2.75;2.00;;;21.70;53.40;;;;;;5051094;28;20021;-67
2023/07/08 01:28:58;;;;;;;5.63;2.45;;;21.70;53.50;;;;;;5051407;28;20116;-67
2023/07/08 01:31:24;;;;;;;2.92;2.30;;;21.70;53.90;;;;;;5052518;28;20108;-67
2023/07/08 01:33:52;;;;;;;3.20;2.30;;;21.50;54.40;;;;;;5049968;28;20392;-67
2023/07/08 01:36:18;;;;;;;3.40;2.28;;;21.40;54.80;;;;;;5055146;28;20433;-67
2023/07/08 01:38:45;;;;;;;3.40;2.10;;;21.30;54.90;;;;;;5050305;28;20017;-66
2023/07/08 01:41:12;;;;;;;2.88;1.77;;;21.20;55.10;;;;;;5050772;28;20583;-67
2023/07/08 01:43:38;;;;;;;5.40;3.85;;;21.30;54.90;;;;;;5031555;28;20107;-67
2023/07/08 01:46:11;;;;;;;4.70;2.92;;;21.20;55.10;;;;;;5050205;28;20140;-67
2023/07/08 01:48:39;;;;;;;3.95;2.60;;;21.20;55.40;;;;;;5052657;28;20023;-67
2023/07/08 01:51:06;;;;;;;3.28;2.40;;;21.10;55.50;;;;;;5050973;28;20033;-67
2023/07/08 01:53:37;;;;;;;2.50;2.03;;;21.10;55.40;;;;;;5050147;28;20059;-67
2023/07/08 01:56:04;;;;;;;3.10;2.15;;;21.20;55.40;;;;;;5049766;28;20112;-67
2023/07/08 01:58:30;;;;;;;2.33;1.98;;;21.20;55.40;;;;;;5057447;28;20099;-67
2023/07/08 02:00:55;;;;;;;6.25;2.42;;;21.20;55.40;;;;;;5056422;28;20437;-67
2023/07/08 02:03:22;;;;;;;3.45;2.38;;;21.10;55.90;;;;;;5053893;28;20096;-67
2023/07/08 02:05:47;;;;;;;3.88;2.35;;;21.00;56.00;;;;;;5049124;28;20024;-67
2023/07/08 02:08:13;;;;;;;2.90;2.20;;;21.00;56.10;;;;;;5057426;28;20024;-67
2023/07/08 02:10:40;;;;;;;3.25;2.20;;;21.00;55.80;;;;;;5050415;28;20025;-67
2023/07/08 02:13:06;;;;;;;3.30;2.30;;;21.10;55.90;;;;;;5052127;28;20039;-67
2023/07/08 02:15:32;;;;;;;3.33;2.20;;;21.10;55.90;;;;;;5062037;28;20052;-67
2023/07/08 02:17:57;;;;;;;2.88;2.08;;;21.10;56.10;;;;;;5050402;28;20033;-67
2023/07/08 02:20:23;;;;;;;2.35;2.00;;;21.10;56.00;;;;;;5047938;28;20026;-67
2023/07/08 02:22:48;;;;;;;3.50;2.20;;;21.10;55.90;;;;;;5050915;28;20387;-66
2023/07/08 02:25:15;;;;;;;3.83;2.05;;;21.10;56.10;;;;;;5049094;28;20036;-67
2023/07/08 02:27:41;;;;;;;3.13;2.20;;;21.00;56.30;;;;;;5050440;28;20481;-67
2023/07/08 02:30:07;;;;;;;4.57;2.40;;;21.00;56.20;;;;;;5048756;28;20234;-67
2023/07/08 02:32:38;;;;;;;3.50;2.30;;;21.00;56.80;;;;;;5049720;28;20029;-67
2023/07/08 02:35:04;;;;;;;3.13;2.28;;;20.90;57.10;;;;;;5049325;28;20102;-67
2023/07/08 02:37:30;;;;;;;7.50;4.90;;;20.90;57.20;;;;;;5034428;28;20027;-67
2023/07/08 02:39:56;;;;;;;6.15;2.65;;;20.80;57.20;;;;;;5058565;28;20021;-67
2023/07/08 02:42:21;;;;;;;2.63;1.90;;;20.80;57.20;;;;;;5050729;28;20515;-67
2023/07/08 02:44:47;;;;;;;2.92;2.20;;;20.80;57.40;;;;;;5049591;28;20040;-67
2023/07/08 02:47:12;;;;;;;2.40;2.00;;;20.80;57.40;;;;;;5048502;28;20029;-67
2023/07/08 02:49:38;;;;;;;5.40;2.33;;;20.80;57.50;;;;;;5052547;28;20024;-67
2023/07/08 02:52:04;;;;;;;2.92;2.28;;;20.80;57.50;;;;;;5049332;28;20101;-66
2023/07/08 02:54:29;;;;;;;3.17;2.08;;;20.70;57.50;;;;;;5035862;28;20048;-66
2023/07/08 02:56:55;;;;;;;4.97;2.40;;;20.70;57.80;;;;;;5047302;28;20384;-67
2023/07/08 02:59:21;;;;;;;5.43;2.92;;;20.70;58.10;;;;;;5037364;28;20017;-67
2023/07/08 03:01:46;;;;;;;3.55;2.40;;;20.60;58.20;;;;;;5064120;28;20101;-67
2023/07/08 03:04:13;;;;;;;2.70;2.28;;;20.60;58.30;;;;;;5048980;28;20044;-67
2023/07/08 03:06:43;;;;;;;4.82;3.08;;;20.50;58.40;;;;;;5048618;28;20056;-67
2023/07/08 03:09:10;;;;;;;4.57;2.58;;;20.50;58.70;;;;;;5049298;28;20064;-67
2023/07/08 03:11:36;;;;;;;3.42;2.20;;;20.40;58.90;;;;;;5058088;28;20063;-67
2023/07/08 03:14:02;;;;;;;4.32;2.47;;;20.40;58.90;;;;;;5048234;28;20029;-67
2023/07/08 03:16:28;;;;;;;4.47;2.58;;;20.40;59.10;;;;;;5057368;28;20028;-67
2023/07/08 03:18:53;;;;;;;3.88;2.47;;;20.40;59.10;;;;;;5052569;28;20029;-67
2023/07/08 03:21:20;;;;;;;4.82;2.55;;;20.30;59.30;;;;;;5049166;28;20021;-67
2023/07/08 03:23:47;;;;;;;4.25;2.72;;;20.30;59.30;;;;;;5049227;28;20039;-67
2023/07/08 03:26:23;;;;;;;4.38;2.63;;;20.30;59.30;;;;;;5048751;28;20025;-67
2023/07/08 03:28:50;;;;;;;3.08;2.30;;;20.30;59.30;;;;;;5040685;28;20036;-67
2023/07/08 03:31:16;;;;;;;3.55;2.58;;;20.30;59.30;;;;;;5033059;28;20440;-66
2023/07/08 03:33:42;;;;;;;3.72;2.25;;;20.30;59.90;;;;;;5049050;28;20025;-67
2023/07/08 03:36:22;;;;;;;4.35;2.15;;;20.30;59.30;;;;;;5052568;28;20025;-66
2023/07/08 03:38:52;;;;;;;3.40;2.53;;;20.30;59.30;;;;;;5048258;28;20017;-67
2023/07/08 03:41:18;;;;;;;2.85;2.30;;;20.30;59.60;;;;;;5050698;28;20052;-67
2023/07/08 03:43:43;;;;;;;4.03;2.40;;;20.20;59.50;;;;;;5052728;28;20478;-68
2023/07/08 03:46:14;;;;;;;5.35;2.83;;;20.20;59.60;;;;;;5057119;28;20033;-67
2023/07/08 03:48:40;;;;;;;3.97;2.30;;;20.20;59.80;;;;;;5052829;28;20049;-68
2023/07/08 03:51:15;;;;;;;4.43;2.33;;;20.20;59.70;;;;;;5055662;28;20025;-67
2023/07/08 03:53:41;;;;;;;2.95;2.30;;;20.20;59.70;;;;;;5054457;28;20057;-68
2023/07/08 03:56:12;;;;;;;2.70;2.10;;;20.20;59.70;;;;;;5053023;28;20052;-67
2023/07/08 03:58:37;;;;;;;4.43;2.30;;;20.20;59.70;;;;;;5052806;28;20075;-67
2023/07/08 04:01:03;;;;;;;3.50;2.50;;;20.20;59.70;;;;;;5056050;28;20024;-68
2023/07/08 04:03:29;;;;;;;3.88;2.28;;;20.20;59.70;;;;;;5051347;28;20033;-67
2023/07/08 04:05:55;;;;;;;4.00;2.38;;;20.20;59.70;;;;;;5054664;28;20032;-68
2023/07/08 04:08:21;;;;;;;3.15;2.15;;;20.20;59.80;;;;;;5052976;28;20075;-66
2023/07/08 04:10:47;;;;;;;3.70;2.50;;;20.20;59.80;;;;;;5052665;28;20040;-66
2023/07/08 04:13:12;;;;;;;3.05;2.33;;;20.20;59.80;;;;;;5044569;28;20040;-67
2023/07/08 04:15:38;;;;;;;4.43;2.25;;;20.20;59.80;;;;;;5053969;28;20017;-67
2023/07/08 04:18:03;;;;;;;3.55;2.42;;;20.20;59.70;;;;;;5060352;28;20036;-66
2023/07/08 04:20:29;;;;;;;3.40;2.35;;;20.20;59.90;;;;;;5052421;28;20417;-66
2023/07/08 04:22:55;;;;;;;3.58;2.63;;;20.20;59.70;;;;;;5055421;28;20046;-66
2023/07/08 04:25:21;;;;;;;3.55;2.35;;;20.30;59.70;;;;;;5051785;28;20075;-66
2023/07/08 04:27:47;;;;;;;4.45;2.53;;;20.30;59.60;;;;;;5057899;28;20372;-66
2023/07/08 04:30:23;;;;;;;3.35;2.33;;;20.30;59.50;;;;;;5051385;28;20555;-66
2023/07/08 04:32:50;;;;;;;3.60;2.40;;;20.30;59.50;;;;;;5051532;28;20112;-66
2023/07/08 04:35:16;;;;;;;3.67;2.20;;;20.30;59.70;;;;;;5054532;28;20495;-66
2023/07/08 04:37:41;;;;;;;3.28;2.30;;;20.30;59.60;;;;;;5051144;28;20116;-67
2023/07/08 04:40:15;;;;;;;3.85;2.40;;;20.40;59.60;;;;;;5051754;28;20029;-67
2023/07/08 04:42:41;;;;;;;3.13;2.20;;;20.40;59.40;;;;;;5051312;28;20028;-67
2023/07/08 04:45:08;;;;;;;3.20;2.38;;;20.40;59.40;;;;;;5048645;28;20100;-67
2023/07/08 04:47:33;;;;;;;3.47;2.47;;;20.40;59.40;;;;;;5057583;28;20032;-67
2023/07/08 04:49:59;;;;;;;5.38;2.40;;;20.40;59.50;;;;;;5051140;28;20542;-67
2023/07/08 04:52:24;;;;;;;4.40;2.38;;;20.50;59.60;;;;;;5051076;28;20033;-68
2023/07/08 04:54:50;;;;;;;4.22;2.30;;;20.40;59.60;;;;;;5050679;28;20029;-67
2023/07/08 04:57:16;;;;;;;3.92;2.30;;;20.40;59.60;;;;;;5055483;28;20021;-68
2023/07/08 04:59:42;;;;;;;3.75;2.50;;;20.50;59.70;;;;;;5033542;28;20075;-68
2023/07/08 05:02:07;;;;;;;3.88;2.45;;;20.90;59.20;;;;;;5051517;28;20029;-68
2023/07/08 05:04:33;;;;;;;4.68;2.60;;;21.10;58.30;;;;;;5049224;28;20474;-68
2023/07/08 05:06:59;;;;;;;3.30;2.45;;;21.40;57.90;;;;;;5048821;28;20025;-68
2023/07/08 05:09:26;;;;;;;3.35;2.40;;;21.60;57.30;;;;;;5050915;28;20086;-68
2023/07/08 05:11:52;;;;;;;4.32;2.63;;;21.50;57.20;;;;;;5051456;28;20025;-67
2023/07/08 05:14:18;;;;;;;2.95;2.20;;;21.60;57.00;;;;;;5050516;28;20036;-67
2023/07/08 05:16:44;;;;;;;4.50;2.50;;;21.90;56.50;;;;;;5033180;28;20021;-67
2023/07/08 05:19:10;;;;;;;3.63;2.08;;;22.10;56.20;;;;;;5050236;28;20051;-67
2023/07/08 05:21:35;;;;;;;3.72;2.42;;;22.30;55.70;;;;;;5049069;28;20474;-67
2023/07/08 05:24:03;;;;;;;4.47;2.40;;;22.60;55.00;;;;;;5034219;28;20031;-68
2023/07/08 05:26:28;;;;;;;3.28;2.30;;;22.80;54.50;;;;;;5052667;28;20060;-68
2023/07/08 05:28:54;;;;;;;2.88;2.30;;;23.00;54.10;;;;;;5052321;28;20082;-68
2023/07/08 05:31:19;;;;;;;2.38;2.00;;;23.20;53.60;;;;;;5052941;28;20036;-67
2023/07/08 05:33:45;;;;;;;4.07;2.50;;;23.50;53.20;;;;;;5037739;28;20028;-67
2023/07/08 05:36:11;;;;;;;3.75;2.38;;;23.50;52.60;;;;;;5050538;28;20036;-68
2023/07/08 05:38:36;;;;;;;3.38;2.20;;;23.50;52.80;;;;;;5046991;28;20024;-68
2023/07/08 05:41:02;;;;;;;3.72;2.58;;;23.40;53.00;;;;;;5052874;28;20491;-68
2023/07/08 05:43:27;;;;;;;3.95;2.30;;;23.60;52.90;;;;;;5051491;28;20096;-67
2023/07/08 05:45:58;;;;;;;3.22;2.20;;;23.70;52.40;;;;;;5049824;28;20100;-69
2023/07/08 05:48:24;;;;;;;3.60;2.50;;;23.80;52.20;;;;;;5055455;28;20032;-68
2023/07/08 05:50:49;;;;;;;3.83;2.30;;;23.90;52.10;;;;;;5024656;28;20275;-68
2023/07/08 05:53:19;;;;;;;4.32;2.50;;;24.10;52.00;;;;;;5050843;28;20029;-68
2023/07/08 05:55:45;;;;;;;3.30;2.40;;;24.10;51.80;;;;;;5050520;28;20013;-68
2023/07/08 05:58:10;;;;;;;4.93;2.55;;;24.10;51.80;;;;;;5055477;28;20387;-68
2023/07/08 06:00:36;;;;;;;3.67;2.30;;;24.00;51.80;;;;;;5046069;28;20029;-67
2023/07/08 06:03:02;;;;;;;5.50;2.50;;;24.20;52.10;;;;;;5048732;28;20029;-68
2023/07/08 06:05:28;;;;;;;3.55;2.80;;;24.00;52.00;;;;;;5036849;28;20051;-68
2023/07/08 06:07:53;;;;;;;4.50;2.38;;;24.00;52.00;;;;;;5052578;28;20100;-69
2023/07/08 06:10:19;;;;;;;4.22;2.78;;;23.90;52.40;;;;;;5049809;28;20065;-67
2023/07/08 06:12:45;;;;;;;5.10;2.55;;;23.90;52.10;;;;;;5048381;28;20021;-68
2023/07/08 06:15:12;;;;;;;4.57;2.40;;;23.80;52.50;;;;;;5051899;28;20036;-69
2023/07/08 06:17:37;;;;;;;4.32;2.38;;;23.80;52.50;;;;;;5054637;28;20047;-69
2023/07/08 06:20:03;;;;;;;2.53;2.10;;;23.70;52.60;;;;;;5038209;28;20052;-68
2023/07/08 06:22:29;;;;;;;3.50;2.40;;;23.70;52.90;;;;;;5030101;28;20029;-68
2023/07/08 06:24:54;;;;;;;3.38;2.33;;;23.90;52.80;;;;;;5050525;28;20480;-69
2023/07/08 06:27:20;;;;;;;3.22;2.28;;;23.70;52.70;;;;;;5056777;28;20029;-70
2023/07/08 06:29:45;;;;;;;3.97;2.35;;;23.80;52.80;;;;;;5033525;28;20021;-69
2023/07/08 06:32:11;;;;;;;3.85;2.67;;;23.80;52.70;;;;;;5050671;28;20021;-70
2023/07/08 06:34:37;;;;;;;3.55;2.40;;;23.80;52.50;;;;;;5055165;28;20025;-68
2023/07/08 06:37:04;;;;;;;3.25;2.20;;;23.90;52.70;;;;;;5054975;28;20487;-68
2023/07/08 06:39:29;;;;;;;4.72;2.40;;;24.10;52.60;;;;;;5055721;28;20020;-69
2023/07/08 06:41:55;;;;;;;3.83;2.25;;;24.20;52.30;;;;;;5065303;28;20087;-69
2023/07/08 06:44:20;;;;;;;3.58;2.25;;;24.20;52.20;;;;;;5050987;28;20040;-69
2023/07/08 06:46:46;;;;;;;4.78;2.50;;;24.20;52.30;;;;;;5064485;28;20094;-68
2023/07/08 06:49:12;;;;;;;4.53;2.40;;;24.20;51.80;;;;;;5054388;28;20016;-69
2023/07/08 06:51:37;;;;;;;4.25;2.40;;;24.20;51.90;;;;;;5050573;28;20529;-70
2023/07/08 06:54:10;;;;;;;2.58;2.13;;;24.20;52.00;;;;;;5049742;28;20063;-69
2023/07/08 06:56:39;;;;;;;4.47;2.55;;;24.40;52.10;;;;;;5031286;28;20025;-69
2023/07/08 06:59:06;;;;;;;3.28;2.15;;;24.50;51.90;;;;;;5046538;28;20099;-69
2023/07/08 07:01:31;;;;;;;3.22;2.60;;;24.50;51.90;;;;;;5053027;28;20040;-68
2023/07/08 07:03:57;;;;;;;3.90;2.42;;;24.60;52.00;;;;;;5047351;28;20147;-69
2023/07/08 07:06:22;;;;;;;2.92;2.10;;;24.60;52.10;;;;;;5027966;28;20040;-69
2023/07/08 07:08:48;;;;;;;3.75;2.30;;;24.80;52.00;;;;;;5048373;28;20040;-69
2023/07/08 07:11:14;;;;;;;3.72;2.50;;;25.00;51.60;;;;;;5028564;28;20029;-67
2023/07/08 07:13:40;;;;;;;4.13;2.40;;;25.10;51.50;;;;;;5033927;28;20044;-67
2023/07/08 07:16:06;;;;;;;3.92;2.80;;;25.00;51.40;;;;;;5032211;28;20025;-69
2023/07/08 07:18:31;;;;;;;5.30;2.45;;;25.00;51.30;;;;;;5049197;28;20100;-69
2023/07/08 07:20:58;;;;;;;4.60;2.20;;;25.20;51.40;;;;;;5049548;28;20037;-67
2023/07/08 07:23:24;;;;;;;3.03;2.35;;;25.20;51.40;;;;;;5069677;28;20434;-68
2023/07/08 07:25:49;;;;;;;3.58;2.40;;;25.50;51.40;;;;;;5053998;28;20079;-70
2023/07/08 07:28:16;;;;;;;3.70;2.70;;;25.80;50.90;;;;;;5049729;28;20086;-68
2023/07/08 07:30:43;;;;;;;3.28;2.63;;;25.80;50.50;;;;;;5049373;28;20033;-69
2023/07/08 07:33:09;;;;;;;2.80;2.20;;;25.80;50.60;;;;;;5031421;28;20021;-68
2023/07/08 07:35:35;;;;;;;3.35;2.50;;;25.90;50.90;;;;;;5054792;28;20067;-68
2023/07/08 07:38:00;;;;;;;3.20;2.45;;;25.90;50.60;;;;;;5050191;28;20044;-70
2023/07/08 07:40:26;;;;;;;3.42;2.50;;;26.00;50.70;;;;;;5064697;28;20024;-69
2023/07/08 07:42:52;;;;;;;2.70;2.42;;;26.10;51.20;;;;;;5049163;28;20461;-68
2023/07/08 07:45:19;;;;;;;4.57;2.33;;;26.40;50.30;;;;;;5053063;28;20040;-69
2023/07/08 07:47:45;;;;;;;3.25;2.38;;;26.50;50.10;;;;;;5049354;28;20062;-69
2023/07/08 07:50:10;;;;;;;3.20;2.40;;;26.60;49.90;;;;;;5049693;28;20069;-69
2023/07/08 07:52:36;;;;;;;3.53;2.80;;;26.80;50.00;;;;;;5049103;28;20033;-69
2023/07/08 07:55:03;;;;;;;4.22;2.70;;;26.90;50.50;;;;;;5052285;28;20074;-68
2023/07/08 07:57:29;;;;;;;3.53;2.50;;;27.10;49.40;;;;;;5059959;28;20032;-69
2023/07/08 07:59:54;;;;;;;3.42;2.80;;;27.10;49.10;;;;;;5053964;28;20025;-69
2023/07/08 08:02:20;;;;;;;5.15;2.83;;;27.10;49.00;;;;;;5061729;28;20037;-70
2023/07/08 08:04:46;;;;;;;3.05;2.70;;;27.00;49.00;;;;;;5050076;28;20036;-69
2023/07/08 08:07:12;;;;;;;3.95;2.88;;;27.00;48.60;;;;;;5037910;28;20028;-69
2023/07/08 08:09:37;;;;;;;3.47;2.30;;;27.00;48.90;;;;;;5049034;28;20051;-70
2023/07/08 08:12:04;;;;;;;4.22;2.42;;;27.10;49.40;;;;;;5060077;28;20708;-69
2023/07/08 08:14:30;;;;;;;3.75;2.90;;;27.20;49.50;;;;;;5049355;28;20472;-69
2023/07/08 08:16:55;;;;;;;3.67;2.60;;;27.30;49.30;;;;;;5064638;28;20032;-69
2023/07/08 08:19:22;;;;;;;3.72;2.92;;;27.20;49.00;;;;;;5050078;28;20021;-70
2023/07/08 08:21:48;;;;;;;5.47;2.58;;;27.20;49.30;;;;;;5067914;28;20028;-69
2023/07/08 08:24:14;;;;;;;6.28;2.38;;;27.50;49.50;;;;;;5052400;28;20029;-69
2023/07/08 08:26:39;;;;;;;3.88;2.88;;;27.60;49.10;;;;;;5061094;28;20112;-69
2023/07/08 08:29:05;;;;;;;4.63;2.90;;;27.60;48.90;;;;;;5052619;28;20028;-69
2023/07/08 08:31:33;;;;;;;4.85;2.80;;;27.70;49.00;;;;;;5052955;28;20518;-69
2023/07/08 08:33:59;;;;;;;4.28;2.88;;;27.80;48.90;;;;;;5057874;28;20028;-68
2023/07/08 08:36:25;;;;;;;5.45;3.38;;;27.80;48.60;;;;;;5060541;28;20550;-69
2023/07/08 08:38:50;;;;;;;5.35;3.35;;;27.90;48.30;;;;;;5034159;28;20040;-69
2023/07/08 08:41:19;;;;;;;5.30;3.67;;;27.80;48.00;;;;;;5052336;28;20017;-68
2023/07/08 08:43:47;;;;;;;3.85;3.20;;;27.50;48.40;;;;;;5051702;28;20030;-69
2023/07/08 08:46:34;;;;;;;3.75;2.70;;;27.60;48.90;;;;;;5052510;28;20021;-68
2023/07/08 08:49:07;;;;;;;4.10;3.20;;;27.80;48.90;;;;;;5052136;28;20095;-69
2023/07/08 08:51:33;;;;;;;4.32;3.15;;;27.90;48.50;;;;;;5052447;28;20487;-69
2023/07/08 08:54:00;;;;;;;4.45;2.75;;;27.90;48.60;;;;;;5056811;28;20029;-69
2023/07/08 08:56:42;;;;;;;6.75;3.40;;;28.00;49.10;;;;;;5060724;28;20016;-69
2023/07/08 08:59:35;;;;;;;4.90;3.22;;;28.00;48.80;;;;;;5064943;28;20024;-69
2023/07/08 09:02:07;;;;;;;4.07;2.90;;;27.90;49.60;;;;;;5058086;28;20037;-67
2023/07/08 09:04:36;;;;;;;5.03;3.40;;;27.90;50.00;;;;;;5057062;28;20025;-67
2023/07/08 09:07:12;;;;;;;6.28;2.80;;;28.10;49.80;;;;;;5052881;28;20040;-67
2023/07/08 09:09:45;;;;;;;5.72;3.08;;;28.10;49.80;;;;;;5050977;28;20515;-68
2023/07/08 09:12:20;;;;;;;4.82;3.15;;;28.30;50.10;;;;;;5064169;28;20032;-66
2023/07/08 09:14:47;;;;;;;4.78;2.97;;;28.20;50.00;;;;;;5053489;28;20029;-69
2023/07/08 09:17:34;;;;;;;4.22;3.13;;;28.30;50.30;;;;;;5064408;28;20020;-67
2023/07/08 09:20:03;;;;;;;5.07;3.38;;;28.40;50.00;;;;;;5051888;28;20051;-68
2023/07/08 09:22:45;;;;;;;3.92;3.00;;;28.40;49.90;;;;;;5047277;28;20092;-68
2023/07/08 09:25:39;;;;;;;6.25;3.30;;;28.70;50.30;;;;;;5052107;28;20025;-69
2023/07/08 09:28:04;;;;;;;4.63;3.30;;;28.90;50.00;;;;;;5058435;28;20070;-68
2023/07/08 09:30:30;;;;;;;5.78;3.00;;;29.00;49.40;;;;;;5052030;28;20442;-68
2023/07/08 09:32:57;;;;;;;4.15;2.90;;;28.90;49.20;;;;;;5051051;28;20033;-69
2023/07/08 09:35:42;;;;;;;3.25;2.67;;;29.10;49.60;;;;;;5052589;28;20066;-68
2023/07/08 09:38:13;;;;;;;4.53;3.38;;;29.20;49.60;;;;;;5059068;28;20489;-69
2023/07/08 09:40:38;;;;;;;5.20;3.20;;;29.30;49.50;;;;;;5049711;28;20119;-69
2023/07/08 09:43:36;;;;;;;6.15;3.40;;;29.50;49.40;;;;;;5051551;28;20056;-69
2023/07/08 09:46:02;;;;;;;7.20;3.22;;;29.50;48.40;;;;;;5049168;28;20051;-68
2023/07/08 09:48:30;;;;;;;4.20;3.40;;;29.50;48.60;;;;;;5035103;28;20021;-68
2023/07/08 09:50:57;;;;;;;5.15;3.33;;;29.70;48.60;;;;;;5048593;28;20538;-67
2023/07/08 09:53:23;;;;;;;5.03;3.25;;;29.80;48.50;;;;;;5050801;28;20033;-69
2023/07/08 09:55:53;;;;;;;4.88;3.50;;;29.80;47.90;;;;;;5054261;28;20025;-69
2023/07/08 09:58:31;;;;;;;5.15;3.40;;;30.10;47.60;;;;;;5058890;28;20021;-68
2023/07/08 10:01:12;;;;;;;5.18;2.95;;;30.20;47.80;;;;;;5051003;28;20025;-69
2023/07/08 10:03:38;;;;;;;4.28;3.03;;;30.40;47.70;;;;;;5051481;28;20029;-67
2023/07/08 10:06:14;;;;;;;4.65;3.40;;;30.50;47.50;;;;;;5049679;28;20044;-67
2023/07/08 10:08:44;;;;;;;4.13;3.30;;;30.60;47.10;;;;;;5051921;28;20029;-67
2023/07/08 10:11:28;;;;;;;4.90;3.33;;;30.70;46.60;;;;;;5050703;28;20032;-68
2023/07/08 10:13:59;;;;;;;5.10;3.55;;;30.80;46.40;;;;;;5068810;28;20431;-66
2023/07/08 10:16:33;;;;;;;5.53;4.28;;;30.70;45.50;;;;;;5056255;28;20426;-68
2023/07/08 10:18:59;;;;;;;4.93;3.70;;;30.70;45.60;;;;;;5050046;28;20032;-67
2023/07/08 10:21:25;;;;;;;6.05;3.90;;;30.90;45.40;;;;;;5051014;28;20527;-69
2023/07/08 10:24:20;;;;;;;5.63;3.75;;;30.80;44.60;;;;;;5051099;28;20116;-69
2023/07/08 10:27:04;;;;;;;7.00;3.70;;;30.80;44.90;;;;;;5045492;28;20091;-67
2023/07/08 10:29:43;;;;;;;5.18;3.30;;;30.70;44.80;;;;;;5046491;28;20124;-68
2023/07/08 10:32:15;;;;;;;5.75;3.92;;;30.90;45.50;;;;;;5052700;28;20483;-68
2023/07/08 10:34:52;;;;;;;5.20;3.80;;;30.90;45.00;;;;;;5061849;28;20021;-69
2023/07/08 10:37:58;;;;;;;5.35;3.80;;;30.90;45.00;;;;;;5052283;28;20020;-68
2023/07/08 10:40:52;;;;;;;6.00;3.75;;;31.10;45.60;;;;;;5056610;28;20565;-67
2023/07/08 10:43:42;;;;;;;5.53;4.00;;;31.30;45.40;;;;;;5050222;28;20131;-68
2023/07/08 10:46:38;;;;;;;7.03;4.10;;;31.50;44.90;;;;;;5053713;28;20052;-68
2023/07/08 10:49:39;;;;;;;4.93;4.00;;;31.40;44.60;;;;;;5047938;28;20397;-68
2023/07/08 10:52:25;;;;;;;4.73;3.63;;;31.50;44.60;;;;;;5025298;28;20430;-68
2023/07/08 10:54:56;;;;;;;5.35;3.97;;;31.70;44.70;;;;;;5048839;28;20792;-68
2023/07/08 10:57:57;;;;;;;6.03;3.95;;;31.60;44.10;;;;;;5056978;28;20056;-68
2023/07/08 11:00:26;;;;;;;6.15;4.50;;;31.60;44.50;;;;;;4996311;28;20041;-68
2023/07/08 11:03:23;;;;;;;7.75;3.90;;;31.50;44.50;;;;;;5056672;28;20017;-67
2023/07/08 11:06:13;;;;;;;6.15;4.20;;;31.40;44.90;;;;;;5048108;28;20028;-67
2023/07/08 11:08:47;;;;;;;5.90;3.88;;;31.30;44.70;;;;;;5051648;28;20078;-67
2023/07/08 11:11:39;;;;;;;6.63;4.47;;;31.20;44.90;;;;;;5047568;28;20032;-67
2023/07/08 11:14:30;;;;;;;4.90;3.83;;;31.20;44.60;;;;;;5055608;28;20132;-69
2023/07/08 11:17:10;;;;;;;5.38;3.80;;;31.30;45.10;;;;;;5048199;28;20075;-68
2023/07/08 11:19:42;;;;;;;4.55;4.07;;;31.50;45.40;;;;;;5036721;28;20067;-68
2023/07/08 11:22:13;;;;;;;5.25;4.35;;;31.70;45.60;;;;;;5057918;28;20024;-68
2023/07/08 11:24:51;;;;;;;7.07;4.57;;;31.70;44.50;;;;;;5054480;28;20036;-67
2023/07/08 11:27:27;;;;;;;4.90;4.20;;;31.60;44.30;;;;;;5050791;28;20387;-68
2023/07/08 11:30:08;;;;;;;6.05;3.95;;;31.70;44.60;;;;;;5058135;28;20029;-69
2023/07/08 11:32:35;;;;;;;5.50;4.57;;;31.80;44.60;;;;;;5049215;28;20112;-69
2023/07/08 11:35:05;;;;;;;5.78;4.15;;;31.70;44.10;;;;;;5049096;28;20071;-69
2023/07/08 11:37:32;;;;;;;4.78;3.80;;;31.90;44.40;;;;;;5057459;28;20021;-69
2023/07/08 11:40:17;;;;;;;6.22;4.10;;;32.20;43.80;;;;;;5048905;28;20029;-70
2023/07/08 11:42:48;;;;;;;5.30;4.07;;;32.20;43.60;;;;;;5046969;28;20025;-69
2023/07/08 11:45:16;;;;;;;;;;;32.30;43.60;;;;;;5052037;28;20055;-69
2023/07/08 11:47:46;;;;;;;5.53;4.30;;;32.50;43.50;;;;;;5049644;28;19912;-69
2023/07/08 11:50:40;;;;;;;5.43;4.18;;;32.50;43.30;;;;;;5055784;28;20025;-69
2023/07/08 11:53:12;;;;;;;6.25;4.40;;;32.50;43.60;;;;;;5059594;28;20035;-69
2023/07/08 11:55:42;;;;;;;6.95;4.78;;;32.80;43.10;;;;;;5052046;28;20454;-68
2023/07/08 11:58:19;;;;;;;5.55;4.05;;;32.90;42.70;;;;;;5052751;28;20024;-68
2023/07/08 12:01:20;;;;;;;6.40;4.07;;;33.10;42.70;;;;;;5052760;28;20518;-70
2023/07/08 12:03:51;;;;;;;7.05;4.65;;;33.20;42.50;;;;;;5021744;28;20021;-68
2023/07/08 12:06:33;;;;;;;6.07;4.57;;;33.20;42.10;;;;;;5052432;28;20043;-70
2023/07/08 12:09:14;;;;;;;5.28;4.15;;;33.20;42.50;;;;;;5049710;28;20036;-69
2023/07/08 12:11:43;;;;;;;4.68;3.95;;;33.30;42.60;;;;;;5049248;28;20642;-69
2023/07/08 12:14:09;;;;;;;4.68;4.10;;;33.50;42.40;;;;;;5051381;28;20507;-69
2023/07/08 12:16:35;;;;;;;7.60;4.30;;;33.40;42.00;;;;;;5032104;28;20013;-70
2023/07/08 12:19:07;;;;;;;6.93;4.22;;;33.50;41.90;;;;;;5051076;28;20029;-69
2023/07/08 12:21:35;;;;;;;5.90;4.40;;;33.50;41.40;;;;;;5047951;28;20095;-67
2023/07/08 12:24:06;;;;;;;6.93;4.32;;;33.30;41.20;;;;;;5050519;28;20039;-69
2023/07/08 12:26:34;;;;;;;6.47;4.25;;;33.30;41.30;;;;;;5051460;28;20391;-68
2023/07/08 12:29:00;;;;;;;4.88;4.05;;;33.40;41.60;;;;;;5049883;28;20115;-68
2023/07/08 12:31:26;;;;;;;5.97;4.57;;;33.60;41.50;;;;;;5048906;28;20025;-69
2023/07/08 12:33:52;;;;;;;6.38;4.25;;;33.80;40.90;;;;;;5041096;28;20032;-69
2023/07/08 12:36:25;;;;;;;7.35;4.18;;;33.60;40.70;;;;;;5050485;28;20081;-70
2023/07/08 12:38:52;;;;;;;5.72;4.03;;;33.70;40.90;;;;;;5039011;28;20025;-68
2023/07/08 12:41:21;;;;;;;5.60;4.22;;;33.90;41.20;;;;;;5048881;28;20056;-69
2023/07/08 12:43:47;;;;;;;5.55;4.03;;;34.00;40.80;;;;;;5054068;28;20107;-69
2023/07/08 12:46:16;;;;;;;6.10;4.22;;;34.10;40.50;;;;;;5046484;28;20079;-68
2023/07/08 12:48:42;;;;;;;5.30;4.50;;;34.20;40.40;;;;;;5045096;28;20065;-68
2023/07/08 12:51:13;;;;;;;5.38;4.22;;;34.20;40.10;;;;;;5052134;28;20063;-69
2023/07/08 12:53:40;;;;;;;7.72;4.35;;;34.30;39.90;;;;;;5052542;28;20021;-69
2023/07/08 12:56:06;;;;;;;5.30;4.20;;;34.40;39.80;;;;;;5037420;28;20471;-68
2023/07/08 12:58:38;;;;;;;5.00;3.97;;;34.60;39.50;;;;;;5052767;28;20023;-69
2023/07/08 13:01:06;;;;;;;6.40;4.65;;;34.80;39.50;;;;;;5047611;28;20091;-68